createdAt,value
2018-10-02T00:02:57.040Z,18.27
2018-10-02T00:07:39.904Z,18.33
2018-10-02T00:12:28.193Z,19.03
2018-10-02T00:17:11.106Z,19.43
2018-10-02T00:21:54.391Z,17.70
2018-10-02T00:26:37.374Z,17.90
2018-10-02T00:31:20.366Z,17.40
2018-10-02T00:36:04.477Z,18.77
2018-10-02T00:40:47.317Z,20.80
2018-10-02T00:45:33.834Z,19.70
2018-10-02T00:50:16.710Z,19.47
2018-10-02T00:54:59.790Z,16.93
2018-10-02T00:59:42.661Z,17.67
2018-10-02T01:04:25.625Z,17.13
2018-10-02T01:09:10.691Z,16.77
2018-10-02T01:13:53.665Z,16.47
2018-10-02T01:18:36.525Z,16.13
2018-10-02T01:23:20.498Z,15.83
2018-10-02T01:28:03.368Z,16.17
2018-10-02T01:32:46.247Z,17.33
2018-10-02T01:37:29.153Z,17.43
2018-10-02T01:42:12.315Z,17.60
2018-10-02T01:46:56.417Z,17.87
2018-10-02T01:51:39.301Z,18.53
2018-10-02T01:56:22.189Z,17.80
2018-10-02T02:01:05.072Z,16.57
2018-10-02T02:05:48.951Z,18.70
2018-10-02T02:10:31.849Z,18.53
2018-10-02T02:15:14.741Z,18.03
2018-10-02T02:19:57.740Z,19.93
2018-10-02T02:24:40.753Z,18.80
2018-10-02T02:29:23.599Z,19.13
2018-10-02T02:34:07.521Z,19.57
2018-10-02T02:38:50.404Z,19.60
2018-10-02T02:43:33.274Z,17.90
2018-10-02T02:48:21.649Z,17.10
2018-10-02T02:53:09.832Z,18.00
2018-10-02T02:57:52.680Z,17.50
2018-10-02T03:02:36.640Z,19.10
2018-10-02T03:07:19.500Z,15.77
2018-10-02T03:12:02.402Z,16.33
2018-10-02T03:16:45.529Z,14.67
2018-10-02T03:21:28.364Z,15.57
2018-10-02T03:26:12.775Z,14.77
2018-10-02T03:30:55.654Z,15.43
2018-10-02T03:35:39.628Z,15.63
2018-10-02T03:40:22.473Z,9.77
2018-10-02T03:45:05.447Z,11.60
2018-10-02T03:49:48.343Z,12.67
2018-10-02T03:54:32.397Z,14.77
2018-10-02T03:59:15.280Z,10.97
2018-10-02T04:03:58.177Z,9.60
2018-10-02T04:08:41.037Z,6.73
2018-10-02T04:13:23.941Z,6.00
2018-10-02T04:18:06.793Z,5.30
2018-10-02T04:22:50.736Z,5.87
2018-10-02T04:27:33.554Z,4.83
2018-10-02T04:32:17.497Z,4.77
2018-10-02T04:37:00.317Z,4.70
2018-10-02T04:41:43.238Z,4.10
2018-10-02T04:46:26.144Z,3.77
2018-10-02T04:51:09.078Z,4.00
2018-10-02T04:55:54.092Z,3.57
2018-10-02T05:00:36.900Z,3.40
2018-10-02T05:05:20.806Z,4.10
2018-10-02T05:10:03.662Z,3.83
2018-10-02T05:14:46.577Z,4.30
2018-10-02T05:19:29.436Z,3.43
2018-10-02T05:24:13.322Z,3.20
2018-10-02T05:28:56.170Z,3.00
2018-10-02T05:33:39.121Z,2.30
2018-10-02T05:38:21.975Z,2.77
2018-10-02T05:43:04.842Z,2.57
2018-10-02T05:47:47.683Z,2.93
2018-10-02T05:52:34.466Z,3.20
2018-10-02T05:57:17.454Z,2.83
2018-10-02T06:02:00.529Z,2.33
2018-10-02T06:06:43.394Z,2.27
2018-10-02T06:11:26.885Z,2.60
2018-10-02T06:16:13.537Z,3.57
2018-10-02T06:20:56.406Z,2.80
2018-10-02T06:25:40.291Z,2.70
2018-10-02T06:30:23.219Z,2.50
2018-10-02T06:35:06.340Z,2.07
2018-10-02T06:39:49.226Z,2.43
2018-10-02T06:44:33.220Z,3.00
2018-10-02T06:49:16.031Z,2.50
2018-10-02T06:53:59.142Z,2.90
2018-10-02T06:58:42.058Z,2.53
2018-10-02T07:03:26.975Z,2.70
2018-10-02T07:08:09.866Z,2.60
2018-10-02T07:12:53.016Z,3.67
2018-10-02T07:17:35.937Z,2.07
2018-10-02T07:22:19.071Z,2.63
2018-10-02T07:27:02.115Z,2.67
2018-10-02T07:31:44.886Z,2.60
2018-10-02T07:36:27.796Z,2.43
2018-10-02T07:41:10.678Z,2.80
2018-10-02T07:45:57.486Z,3.37
2018-10-02T07:50:40.385Z,3.50
2018-10-02T07:55:24.291Z,3.97
2018-10-02T08:00:07.719Z,3.30
2018-10-02T08:04:50.581Z,3.90
2018-10-02T08:09:33.477Z,3.20
2018-10-02T08:14:16.606Z,3.03
2018-10-02T08:18:59.431Z,5.60
2018-10-02T08:23:42.398Z,3.57
2018-10-02T08:28:25.234Z,3.13
2018-10-02T08:33:08.196Z,3.20
2018-10-02T08:37:51.417Z,2.33
2018-10-02T08:42:34.508Z,3.40
2018-10-02T08:47:17.547Z,3.03
2018-10-02T08:52:00.447Z,3.10
2018-10-02T08:56:43.330Z,3.47
2018-10-02T09:01:26.214Z,3.90
2018-10-02T09:06:10.467Z,3.70
2018-10-02T09:10:53.321Z,4.10
2018-10-02T09:15:39.546Z,3.90
2018-10-02T09:20:22.750Z,4.67
2018-10-02T09:25:05.938Z,4.73
2018-10-02T09:29:54.099Z,4.20
2018-10-02T09:34:45.945Z,5.17
2018-10-02T09:39:34.374Z,4.80
2018-10-02T09:44:19.250Z,6.33
2018-10-02T09:49:02.305Z,8.63
2018-10-02T09:53:45.310Z,9.07
2018-10-02T09:58:28.212Z,9.97
2018-10-02T10:03:11.362Z,8.70
2018-10-02T10:07:54.230Z,9.80
2018-10-02T10:12:40.649Z,10.07
2018-10-02T10:17:23.663Z,10.30
2018-10-02T10:22:06.675Z,11.20
2018-10-02T10:26:49.551Z,10.60
2018-10-02T10:31:32.435Z,10.50
2018-10-02T10:36:15.309Z,12.37
2018-10-02T10:40:58.254Z,13.83
2018-10-02T10:45:42.152Z,12.90
2018-10-02T10:50:25.031Z,12.70
2018-10-02T10:55:28.794Z,11.10
2018-10-02T11:00:11.694Z,11.43
2018-10-02T11:04:54.761Z,10.43
2018-10-02T11:09:37.676Z,11.20
2018-10-02T11:14:20.684Z,11.00
2018-10-02T11:19:03.641Z,10.43
2018-10-02T11:23:46.751Z,9.70
2018-10-02T11:28:29.590Z,10.20
2018-10-02T11:34:42.842Z,8.97
2018-10-02T11:39:25.694Z,10.07
2018-10-02T11:44:08.597Z,9.57
2018-10-02T11:48:51.490Z,9.57
2018-10-02T11:53:36.418Z,9.57
2018-10-02T11:58:19.297Z,22.20
2018-10-02T12:03:03.235Z,12.03
2018-10-02T12:07:46.102Z,10.50
2018-10-02T12:12:29.946Z,9.37
2018-10-02T12:17:12.842Z,10.07
2018-10-02T12:21:55.751Z,9.40
2018-10-02T12:26:38.672Z,9.30
2018-10-02T12:31:21.827Z,9.73
2018-10-02T12:37:34.677Z,6.77
2018-10-02T12:42:17.674Z,8.90
2018-10-02T12:47:00.625Z,9.77
2018-10-02T12:51:44.458Z,13.63
2018-10-02T12:56:27.305Z,14.17
2018-10-02T13:01:10.206Z,12.53
2018-10-02T13:05:53.043Z,11.03
2018-10-02T13:10:35.897Z,10.30
2018-10-02T13:15:18.878Z,12.47
2018-10-02T13:20:02.063Z,11.03
2018-10-02T13:24:45.121Z,12.27
2018-10-02T13:29:28.538Z,13.33
2018-10-02T13:34:11.798Z,11.97
2018-10-02T13:38:54.651Z,14.03
2018-10-02T13:43:37.670Z,12.13
2018-10-02T13:53:29.430Z,15.63
2018-10-02T13:58:12.266Z,15.17
2018-10-02T14:02:55.422Z,18.27
2018-10-02T14:07:38.390Z,14.30
2018-10-02T14:12:21.358Z,10.80
2018-10-02T14:17:04.230Z,20.07
2018-10-02T14:21:47.091Z,12.53
2018-10-02T14:26:29.986Z,12.53
2018-10-02T14:31:14.927Z,12.90
2018-10-02T14:35:58.193Z,16.03
2018-10-02T14:40:41.026Z,11.33
2018-10-02T14:45:23.860Z,10.77
2018-10-02T14:50:06.901Z,10.37
2018-10-02T14:54:49.890Z,10.20
2018-10-02T14:59:32.764Z,11.13
2018-10-02T15:04:16.666Z,12.63
2018-10-02T15:08:59.548Z,10.57
2018-10-02T15:13:42.411Z,9.60
2018-10-02T15:18:26.252Z,10.03
2018-10-02T15:23:11.616Z,10.20
2018-10-02T15:27:54.478Z,11.07
2018-10-02T15:32:37.544Z,10.47
2018-10-02T15:37:20.476Z,8.73
2018-10-02T15:42:03.608Z,9.27
2018-10-02T15:46:46.503Z,8.53
2018-10-02T15:51:30.610Z,9.83
2018-10-02T15:56:13.499Z,10.73
2018-10-02T16:00:57.388Z,9.13
2018-10-02T16:05:40.282Z,9.57
2018-10-02T16:10:23.142Z,10.63
2018-10-02T16:15:06.103Z,22.37
2018-10-02T16:19:48.970Z,13.90
2018-10-02T16:24:32.146Z,15.27
2018-10-02T16:29:15.045Z,16.00
2018-10-02T16:33:58.132Z,14.60
2018-10-02T16:38:41.021Z,12.17
2018-10-02T16:43:25.106Z,12.33
2018-10-02T16:48:08.011Z,13.60
2018-10-02T16:52:50.897Z,13.87
2018-10-02T16:57:33.753Z,13.33
2018-10-02T17:02:17.052Z,13.53
2018-10-02T17:06:59.949Z,14.80
2018-10-02T17:11:43.992Z,15.47
2018-10-02T17:16:26.905Z,14.47
2018-10-02T17:21:10.008Z,14.57
2018-10-02T17:25:52.907Z,13.80
2018-10-02T17:30:38.385Z,14.50
2018-10-02T17:35:21.283Z,15.50
2018-10-02T17:40:04.317Z,14.27
2018-10-02T17:44:47.225Z,16.53
2018-10-02T17:49:30.124Z,15.33
2018-10-02T17:54:13.305Z,14.40
2018-10-02T17:58:56.605Z,13.70
2018-10-02T18:03:40.310Z,15.40
2018-10-02T18:08:23.279Z,28.20
2018-10-02T18:13:07.455Z,26.93
2018-10-02T18:17:50.437Z,17.27
2018-10-02T18:22:33.381Z,15.27
2018-10-02T18:27:16.356Z,14.97
2018-10-02T18:31:59.396Z,13.83
2018-10-02T18:36:42.436Z,13.47
2018-10-02T18:41:26.868Z,14.17
2018-10-02T18:46:09.825Z,14.40
2018-10-02T18:59:52.792Z,14.77
2018-10-02T19:04:35.758Z,16.13
2018-10-02T19:09:19.072Z,14.07
2018-10-02T19:14:02.018Z,13.30
2018-10-02T19:18:44.956Z,12.53
2018-10-02T19:23:29.089Z,14.60
2018-10-02T19:28:12.007Z,13.57
2018-10-02T19:32:56.151Z,13.93
2018-10-02T19:37:44.575Z,15.53
2018-10-02T19:42:28.555Z,14.03
2018-10-02T19:47:11.595Z,12.27
2018-10-02T19:52:11.040Z,12.00
2018-10-02T19:56:54.511Z,13.20
2018-10-02T20:01:38.474Z,12.83
2018-10-02T20:06:21.325Z,12.97
2018-10-02T20:11:04.303Z,13.03
2018-10-02T20:15:47.182Z,13.60
2018-10-02T20:20:32.459Z,12.00
2018-10-02T20:25:15.353Z,12.83
2018-10-02T20:30:00.387Z,11.87
2018-10-02T20:34:43.229Z,11.10
2018-10-02T20:39:26.098Z,12.30
2018-10-02T20:44:09.477Z,10.77
2018-10-02T20:48:52.370Z,10.03
2018-10-02T20:53:35.382Z,9.33
2018-10-02T20:58:18.247Z,10.53
2018-10-02T21:03:01.387Z,9.77
2018-10-02T21:07:44.398Z,9.53
2018-10-02T21:12:27.391Z,8.87
2018-10-02T21:17:10.255Z,8.83
2018-10-02T21:21:55.243Z,8.53
2018-10-02T21:26:38.094Z,8.43
2018-10-02T21:31:21.947Z,8.33
2018-10-02T21:36:04.850Z,8.33
2018-10-02T21:40:48.753Z,8.30
2018-10-02T21:45:31.664Z,7.63
2018-10-02T21:50:14.864Z,8.27
2018-10-02T21:54:57.874Z,8.83
2018-10-02T21:59:40.768Z,8.70
2018-10-02T22:04:24.070Z,8.47
2018-10-02T22:09:08.537Z,9.70
2018-10-02T22:13:52.905Z,10.23
2018-10-02T22:18:35.737Z,10.90
2018-10-02T22:23:19.798Z,10.83
2018-10-02T22:28:02.698Z,12.03
2018-10-02T22:32:46.577Z,11.57
2018-10-02T22:37:29.436Z,10.67
2018-10-02T22:42:16.091Z,10.23
2018-10-02T22:46:59.476Z,11.90
2018-10-02T22:51:43.518Z,11.47
2018-10-02T22:56:27.303Z,12.10
2018-10-02T23:01:12.378Z,11.53
2018-10-02T23:05:55.689Z,12.37
2018-10-02T23:10:40.709Z,14.57
2018-10-02T23:15:23.956Z,12.37
2018-10-02T23:20:08.070Z,14.73
2018-10-02T23:24:51.002Z,13.57
2018-10-02T23:29:35.416Z,17.07
2018-10-02T23:34:18.446Z,18.60
2018-10-02T23:39:01.402Z,18.17
2018-10-02T23:43:46.817Z,19.43
2018-10-02T23:48:30.018Z,20.47
2018-10-02T23:53:13.058Z,18.97
2018-10-02T23:57:55.910Z,19.07
